createdAt,value
2023-05-06T00:02:18.723Z,10.10
2023-05-06T00:04:46.977Z,10.10
2023-05-06T00:07:17.346Z,10.00
2023-05-06T00:09:45.545Z,10.00
2023-05-06T00:12:18.442Z,9.90
2023-05-06T00:14:47.418Z,9.90
2023-05-06T00:17:15.590Z,9.80
2023-05-06T00:19:44.483Z,9.80
2023-05-06T00:22:12.996Z,9.80
2023-05-06T00:24:41.050Z,9.90
2023-05-06T00:27:10.361Z,9.80
2023-05-06T00:29:40.712Z,9.80
2023-05-06T00:32:08.976Z,9.80
2023-05-06T00:34:37.282Z,9.80
2023-05-06T00:37:06.244Z,9.80
2023-05-06T00:39:35.375Z,9.70
2023-05-06T00:42:03.723Z,9.60
2023-05-06T00:44:33.420Z,9.60
2023-05-06T00:47:03.459Z,9.50
2023-05-06T00:49:33.384Z,9.40
2023-05-06T00:52:01.743Z,9.50
2023-05-06T00:54:30.839Z,9.50
2023-05-06T00:57:03.364Z,9.50
2023-05-06T00:59:31.764Z,9.50
2023-05-06T01:02:06.413Z,9.50
2023-05-06T01:04:36.062Z,9.40
2023-05-06T01:07:14.420Z,9.30
2023-05-06T01:09:48.357Z,9.20
2023-05-06T01:12:24.410Z,9.20
2023-05-06T01:15:01.193Z,9.10
2023-05-06T01:17:33.379Z,9.10
2023-05-06T01:20:02.808Z,9.10
2023-05-06T01:22:34.363Z,9.00
2023-05-06T01:25:07.632Z,9.00
2023-05-06T01:27:37.375Z,8.90
2023-05-06T01:30:07.606Z,8.90
2023-05-06T01:32:45.400Z,8.90
2023-05-06T01:35:19.600Z,8.80
2023-05-06T01:37:56.405Z,8.80
2023-05-06T01:40:31.415Z,8.70
2023-05-06T01:43:03.222Z,8.70
2023-05-06T01:45:35.389Z,8.70
2023-05-06T01:48:06.798Z,8.70
2023-05-06T01:50:36.796Z,8.70
2023-05-06T01:53:05.011Z,8.60
2023-05-06T01:55:34.589Z,8.60
2023-05-06T01:58:06.619Z,8.60
2023-05-06T02:00:34.981Z,8.60
2023-05-06T02:03:03.601Z,8.50
2023-05-06T02:05:31.717Z,8.50
2023-05-06T02:08:02.415Z,8.50
2023-05-06T02:10:35.151Z,8.50
2023-05-06T02:13:09.553Z,8.40
2023-05-06T02:15:37.667Z,8.40
2023-05-06T02:18:07.274Z,8.40
2023-05-06T02:20:40.398Z,8.40
2023-05-06T02:23:08.880Z,8.30
2023-05-06T02:25:42.508Z,8.20
2023-05-06T02:28:10.672Z,8.20
2023-05-06T02:30:39.462Z,8.20
2023-05-06T02:33:08.417Z,8.20
2023-05-06T02:35:37.230Z,8.20
2023-05-06T02:38:06.422Z,8.10
2023-05-06T02:40:35.598Z,8.10
2023-05-06T02:43:06.979Z,8.00
2023-05-06T02:45:36.174Z,8.10
2023-05-06T02:48:05.518Z,8.00
2023-05-06T02:50:34.422Z,8.00
2023-05-06T02:53:06.409Z,8.10
2023-05-06T02:55:37.854Z,8.00
2023-05-06T02:58:07.295Z,8.00
2023-05-06T03:00:36.373Z,7.90
2023-05-06T03:03:06.592Z,8.00
2023-05-06T03:05:35.232Z,8.00
2023-05-06T03:08:03.464Z,8.10
2023-05-06T03:10:34.417Z,8.10
2023-05-06T03:13:02.972Z,8.10
2023-05-06T03:15:33.726Z,8.10
2023-05-06T03:18:02.008Z,8.10
2023-05-06T03:20:30.927Z,8.10
2023-05-06T03:23:02.175Z,8.10
2023-05-06T03:25:30.764Z,8.10
2023-05-06T03:28:02.090Z,8.10
2023-05-06T03:30:33.477Z,8.10
2023-05-06T03:33:10.090Z,8.10
2023-05-06T03:35:38.476Z,8.10
2023-05-06T03:38:06.636Z,8.10
2023-05-06T03:40:52.446Z,8.10
2023-05-06T03:43:21.847Z,8.20
2023-05-06T03:45:55.176Z,8.20
2023-05-06T03:48:24.235Z,8.20
2023-05-06T03:50:53.434Z,8.30
2023-05-06T03:53:22.453Z,8.30
2023-05-06T03:55:53.992Z,8.40
2023-05-06T03:58:24.433Z,8.30
2023-05-06T04:00:55.468Z,8.40
2023-05-06T04:03:23.775Z,8.40
2023-05-06T04:05:53.442Z,8.30
2023-05-06T04:08:26.443Z,8.40
2023-05-06T04:10:56.456Z,8.60
2023-05-06T04:13:30.296Z,8.50
2023-05-06T04:16:04.198Z,8.50
2023-05-06T04:18:41.322Z,8.60
2023-05-06T04:21:16.275Z,8.60
2023-05-06T04:23:49.644Z,8.60
2023-05-06T04:26:22.507Z,8.60
2023-05-06T04:28:50.636Z,8.70
2023-05-06T04:31:23.540Z,8.70
2023-05-06T04:33:54.027Z,8.80
2023-05-06T04:36:25.463Z,8.70
2023-05-06T04:39:10.605Z,8.70
2023-05-06T04:41:39.961Z,8.80
2023-05-06T04:44:10.460Z,8.80
2023-05-06T04:46:40.497Z,8.90
2023-05-06T04:49:09.878Z,8.90
2023-05-06T04:51:40.921Z,8.90
2023-05-06T04:54:09.488Z,8.90
2023-05-06T04:56:38.493Z,9.10
2023-05-06T04:59:08.314Z,9.10
2023-05-06T05:01:36.658Z,9.10
2023-05-06T05:04:06.274Z,9.30
2023-05-06T05:06:35.328Z,9.30
2023-05-06T05:09:03.567Z,9.30
2023-05-06T05:11:33.079Z,9.40
2023-05-06T05:14:02.276Z,9.50
2023-05-06T05:16:34.495Z,9.40
2023-05-06T05:19:08.350Z,9.50
2023-05-06T05:21:42.086Z,9.50
2023-05-06T05:24:13.534Z,9.60
2023-05-06T05:26:41.925Z,9.60
2023-05-06T05:29:10.115Z,9.60
2023-05-06T05:31:39.580Z,9.60
2023-05-06T05:34:09.241Z,9.60
2023-05-06T05:36:39.319Z,9.60
2023-05-06T05:39:10.831Z,9.60
2023-05-06T05:41:45.508Z,9.70
2023-05-06T05:44:14.518Z,9.80
2023-05-06T05:46:43.886Z,9.90
2023-05-06T05:49:17.127Z,9.80
2023-05-06T05:51:47.637Z,9.80
2023-05-06T05:54:18.408Z,9.80
2023-05-06T05:56:48.518Z,9.90
2023-05-06T05:59:17.350Z,10.00
2023-05-06T06:01:51.796Z,9.90
2023-05-06T06:04:22.121Z,10.00
2023-05-06T06:06:50.670Z,10.10
2023-05-06T06:09:23.599Z,10.10
2023-05-06T06:11:52.478Z,10.20
2023-05-06T06:14:21.351Z,10.30
2023-05-06T06:16:50.555Z,10.30
2023-05-06T06:19:20.944Z,10.30
2023-05-06T06:21:51.250Z,10.30
2023-05-06T06:24:19.508Z,10.40
2023-05-06T06:26:48.285Z,10.50
2023-05-06T06:29:16.444Z,10.60
2023-05-06T06:31:44.576Z,10.60
2023-05-06T06:34:13.004Z,10.70
2023-05-06T06:36:45.250Z,10.80
2023-05-06T06:39:16.028Z,10.90
2023-05-06T06:41:44.150Z,10.90
2023-05-06T06:44:12.480Z,11.00
2023-05-06T06:46:40.696Z,11.00
2023-05-06T06:49:08.811Z,11.10
2023-05-06T06:51:37.565Z,11.20
2023-05-06T06:54:07.107Z,11.20
2023-05-06T06:56:35.376Z,11.20
2023-05-06T06:59:03.536Z,11.30
2023-05-06T07:01:31.737Z,11.40
2023-05-06T07:03:59.923Z,11.50
2023-05-06T07:06:28.071Z,11.60
2023-05-06T07:08:56.437Z,11.70
2023-05-06T07:11:26.061Z,11.90
2023-05-06T07:13:57.176Z,12.00
2023-05-06T07:16:25.426Z,12.00
2023-05-06T07:18:54.571Z,12.00
2023-05-06T07:21:22.685Z,12.10
2023-05-06T07:23:51.714Z,12.20
2023-05-06T07:26:19.864Z,12.20
2023-05-06T07:28:49.585Z,12.30
2023-05-06T07:31:21.175Z,12.30
2023-05-06T07:33:49.722Z,12.30
2023-05-06T07:36:17.894Z,12.40
2023-05-06T07:38:46.295Z,12.50
2023-05-06T07:41:18.172Z,12.60
2023-05-06T07:43:46.570Z,12.60
2023-05-06T07:46:16.058Z,12.60
2023-05-06T07:48:44.462Z,12.70
2023-05-06T07:51:13.570Z,12.70
2023-05-06T07:53:41.823Z,12.80
2023-05-06T07:56:10.371Z,12.90
2023-05-06T07:58:41.579Z,12.70
2023-05-06T08:01:09.673Z,12.80
2023-05-06T08:03:39.300Z,12.70
2023-05-06T08:06:08.686Z,12.80
2023-05-06T08:08:37.577Z,12.90
2023-05-06T08:11:09.149Z,13.00
2023-05-06T08:13:37.384Z,13.00
2023-05-06T08:16:07.148Z,13.10
2023-05-06T08:18:35.390Z,13.00
2023-05-06T08:21:06.543Z,13.00
2023-05-06T08:23:37.342Z,13.10
2023-05-06T08:26:06.601Z,13.00
2023-05-06T08:28:34.692Z,13.10
2023-05-06T08:31:02.816Z,13.10
2023-05-06T08:33:32.609Z,13.20
2023-05-06T08:36:04.469Z,13.20
2023-05-06T08:38:34.577Z,13.20
2023-05-06T08:41:08.822Z,13.20
2023-05-06T08:43:43.608Z,13.10
2023-05-06T08:46:12.109Z,13.20
2023-05-06T08:48:41.618Z,13.20
2023-05-06T08:51:10.103Z,13.20
2023-05-06T08:53:47.998Z,13.20
2023-05-06T08:56:17.591Z,13.10
2023-05-06T08:58:51.945Z,13.20
2023-05-06T09:01:20.581Z,13.20
2023-05-06T09:03:49.116Z,13.20
2023-05-06T09:06:18.394Z,13.30
2023-05-06T09:08:47.813Z,13.20
2023-05-06T09:11:23.200Z,13.30
2023-05-06T09:13:52.633Z,13.40
2023-05-06T09:16:30.667Z,13.30
2023-05-06T09:19:00.632Z,13.40
2023-05-06T09:21:35.008Z,13.40
2023-05-06T09:24:06.368Z,13.40
2023-05-06T09:26:39.058Z,13.40
2023-05-06T09:29:07.621Z,13.50
2023-05-06T09:31:42.650Z,13.60
2023-05-06T09:34:15.170Z,13.60
2023-05-06T09:36:44.415Z,13.40
2023-05-06T09:39:13.954Z,13.40
2023-05-06T09:41:42.200Z,13.40
2023-05-06T09:44:10.348Z,13.40
2023-05-06T09:46:42.868Z,13.40
2023-05-06T09:49:12.297Z,13.50
2023-05-06T09:51:41.575Z,13.50
2023-05-06T09:54:10.398Z,13.50
2023-05-06T09:56:42.819Z,13.60
2023-05-06T09:59:12.208Z,13.70
2023-05-06T10:01:41.366Z,13.70
2023-05-06T10:04:11.116Z,13.70
2023-05-06T10:06:41.708Z,13.70
2023-05-06T10:09:14.754Z,13.60
2023-05-06T10:11:45.532Z,13.70
2023-05-06T10:14:13.926Z,13.60
2023-05-06T10:16:43.275Z,13.60
2023-05-06T10:19:12.080Z,13.60
2023-05-06T10:21:46.390Z,13.60
2023-05-06T10:24:17.518Z,13.60
2023-05-06T10:26:52.184Z,13.50
2023-05-06T10:29:20.434Z,13.50
2023-05-06T10:31:55.032Z,13.50
2023-05-06T10:34:25.639Z,13.50
2023-05-06T10:36:57.811Z,13.50
2023-05-06T10:39:26.988Z,13.40
2023-05-06T10:41:56.523Z,13.30
2023-05-06T10:44:59.179Z,13.30
2023-05-06T10:47:27.689Z,13.30
2023-05-06T10:50:22.680Z,13.40
2023-05-06T10:52:53.428Z,13.30
2023-05-06T10:55:30.515Z,13.20
2023-05-06T10:58:07.110Z,13.20
2023-05-06T11:00:36.633Z,13.00
2023-05-06T11:03:07.493Z,13.00
2023-05-06T11:05:49.062Z,13.00
2023-05-06T11:08:23.503Z,12.90
2023-05-06T11:10:51.912Z,12.80
2023-05-06T11:13:23.723Z,12.80
2023-05-06T11:15:54.870Z,12.80
2023-05-06T11:18:42.567Z,12.70
2023-05-06T11:21:41.688Z,12.80
2023-05-06T11:24:15.196Z,12.80
2023-05-06T11:26:44.311Z,12.70
2023-05-06T11:29:16.446Z,12.80
2023-05-06T11:31:45.813Z,12.80
2023-05-06T11:34:27.295Z,12.70
2023-05-06T11:37:04.684Z,12.70
2023-05-06T11:39:39.982Z,12.70
2023-05-06T11:42:10.069Z,12.70
2023-05-06T11:44:40.661Z,12.80
2023-05-06T11:47:10.068Z,12.70
2023-05-06T11:49:40.685Z,12.70
2023-05-06T11:52:11.687Z,12.60
2023-05-06T11:54:41.455Z,12.60
2023-05-06T11:57:14.241Z,12.70
2023-05-06T11:59:44.704Z,12.70
2023-05-06T12:02:15.667Z,12.60
2023-05-06T12:04:45.701Z,12.60
2023-05-06T12:07:18.122Z,12.70
2023-05-06T12:09:48.442Z,12.60
2023-05-06T12:12:18.574Z,12.50
2023-05-06T12:14:51.396Z,12.50
2023-05-06T12:17:20.484Z,12.40
2023-05-06T12:19:49.104Z,12.50
2023-05-06T12:22:19.489Z,12.60
2023-05-06T12:24:50.386Z,12.60
2023-05-06T12:27:34.429Z,12.60
2023-05-06T12:30:04.785Z,12.50
2023-05-06T12:32:33.263Z,12.50
2023-05-06T12:35:06.042Z,12.50
2023-05-06T12:37:34.691Z,12.40
2023-05-06T12:40:03.070Z,12.40
2023-05-06T12:42:31.643Z,12.40
2023-05-06T12:45:00.735Z,12.40
2023-05-06T12:47:30.335Z,12.30
2023-05-06T12:50:01.774Z,12.30
2023-05-06T12:52:30.715Z,12.30
2023-05-06T12:55:01.906Z,12.30
2023-05-06T12:57:30.086Z,12.20
2023-05-06T12:59:58.342Z,12.30
2023-05-06T13:02:30.736Z,12.30
2023-05-06T13:04:58.875Z,12.20
2023-05-06T13:07:27.679Z,12.10
2023-05-06T13:09:55.846Z,12.00
2023-05-06T13:12:23.950Z,11.90
2023-05-06T13:14:52.655Z,11.90
2023-05-06T13:17:21.272Z,11.90
2023-05-06T13:19:51.111Z,11.90
2023-05-06T13:22:19.358Z,11.80
2023-05-06T13:24:47.723Z,11.70
2023-05-06T13:27:15.823Z,11.60
2023-05-06T13:29:43.895Z,11.40
2023-05-06T13:32:13.757Z,11.30
2023-05-06T13:34:41.941Z,11.20
2023-05-06T13:37:11.399Z,11.20
2023-05-06T13:39:42.023Z,11.10
2023-05-06T13:42:10.267Z,11.00
2023-05-06T13:44:38.396Z,11.00
2023-05-06T13:47:07.516Z,10.80
2023-05-06T13:49:35.662Z,10.80
2023-05-06T13:52:08.208Z,10.80
2023-05-06T13:54:38.576Z,10.80
2023-05-06T13:57:07.732Z,10.80
2023-05-06T13:59:35.879Z,10.70
2023-05-06T14:02:08.163Z,10.70
2023-05-06T14:04:37.782Z,10.60
2023-05-06T14:07:05.846Z,10.60
2023-05-06T14:09:34.026Z,10.60
2023-05-06T14:12:03.496Z,10.60
2023-05-06T14:14:31.710Z,10.60
2023-05-06T14:17:02.356Z,10.60
2023-05-06T14:19:30.947Z,10.60
2023-05-06T14:21:59.095Z,10.60
2023-05-06T14:24:27.207Z,10.60
2023-05-06T14:26:55.396Z,10.40
2023-05-06T14:29:25.266Z,10.50
2023-05-06T14:31:53.835Z,10.40
2023-05-06T14:34:22.129Z,10.40
2023-05-06T14:36:53.439Z,10.40
2023-05-06T14:39:21.740Z,10.40
2023-05-06T14:41:50.232Z,10.40
2023-05-06T14:44:18.356Z,10.30
2023-05-06T14:46:47.914Z,10.30
2023-05-06T14:49:19.855Z,10.20
2023-05-06T14:51:50.814Z,10.20
2023-05-06T14:54:19.220Z,10.30
2023-05-06T14:56:49.752Z,10.30
2023-05-06T14:59:19.809Z,10.30
2023-05-06T15:01:51.837Z,10.20
2023-05-06T15:04:20.039Z,10.10
2023-05-06T15:06:48.292Z,10.10
2023-05-06T15:09:16.438Z,10.10
2023-05-06T15:11:45.958Z,10.30
2023-05-06T15:14:17.304Z,10.30
2023-05-06T15:16:45.867Z,10.40
2023-05-06T15:19:15.431Z,10.40
2023-05-06T15:21:44.071Z,10.40
2023-05-06T15:24:12.651Z,10.50
2023-05-06T15:26:43.513Z,10.50
2023-05-06T15:29:11.806Z,10.50
2023-05-06T15:31:40.965Z,10.40
2023-05-06T15:34:11.257Z,10.40
2023-05-06T15:36:41.785Z,10.40
2023-05-06T15:39:13.310Z,10.40
2023-05-06T15:41:41.446Z,10.40
2023-05-06T15:44:11.398Z,10.40
2023-05-06T15:46:40.568Z,10.40
2023-05-06T15:49:39.665Z,10.40
2023-05-06T15:52:01.272Z,10.40
2023-05-06T15:54:37.147Z,10.40
2023-05-06T15:57:08.782Z,10.40
2023-05-06T15:59:37.833Z,10.40
2023-05-06T16:04:40.209Z,10.40
2023-05-06T16:07:10.918Z,10.40
2023-05-06T16:09:39.160Z,10.40
2023-05-06T16:12:10.403Z,10.40
2023-05-06T16:14:40.154Z,10.40
2023-05-06T16:17:08.600Z,10.40
2023-05-06T16:19:36.851Z,10.30
2023-05-06T16:22:05.287Z,10.30
2023-05-06T16:24:34.854Z,10.30
2023-05-06T16:27:03.002Z,10.30
2023-05-06T16:29:34.485Z,10.30
2023-05-06T16:32:02.761Z,10.30
2023-05-06T16:34:31.194Z,10.30
2023-05-06T16:37:00.576Z,10.20
2023-05-06T16:39:29.482Z,10.20
2023-05-06T16:41:58.954Z,10.10
2023-05-06T16:44:30.835Z,10.10
2023-05-06T16:46:58.947Z,10.10
2023-05-06T16:49:28.102Z,10.10
2023-05-06T16:51:57.163Z,10.10
2023-05-06T16:54:25.844Z,10.00
2023-05-06T16:56:58.689Z,10.00
2023-05-06T16:59:26.881Z,9.90
2023-05-06T17:01:55.104Z,9.90
2023-05-06T17:04:24.954Z,9.90
2023-05-06T17:06:53.183Z,9.90
2023-05-06T17:09:22.332Z,10.00
2023-05-06T17:11:51.122Z,10.00
2023-05-06T17:14:20.891Z,10.00
2023-05-06T17:16:51.179Z,10.00
2023-05-06T17:19:19.608Z,10.00
2023-05-06T17:21:47.687Z,10.00
2023-05-06T17:24:17.852Z,10.00
2023-05-06T17:26:46.362Z,10.00
2023-05-06T17:29:14.460Z,9.90
2023-05-06T17:31:45.109Z,9.90
2023-05-06T17:34:13.182Z,9.90
2023-05-06T17:36:41.370Z,9.90
2023-05-06T17:39:09.659Z,9.80
2023-05-06T17:41:37.748Z,9.80
2023-05-06T17:44:06.852Z,9.80
2023-05-06T17:46:36.244Z,9.80
2023-05-06T17:49:05.897Z,9.80
2023-05-06T17:51:34.065Z,9.80
2023-05-06T17:54:02.197Z,9.70
2023-05-06T17:56:30.254Z,9.70
2023-05-06T17:59:02.613Z,9.80
2023-05-06T18:01:30.842Z,9.80
2023-05-06T18:03:59.621Z,9.70
2023-05-06T18:06:29.237Z,9.70
2023-05-06T18:08:57.893Z,9.70
2023-05-06T18:11:26.908Z,9.70
2023-05-06T18:13:55.160Z,9.70
2023-05-06T18:16:24.016Z,9.70
2023-05-06T18:18:52.894Z,9.70
2023-05-06T18:21:21.247Z,9.70
2023-05-06T18:23:55.645Z,9.60
2023-05-06T18:26:43.152Z,9.60
2023-05-06T18:29:12.685Z,9.60
2023-05-06T18:31:41.029Z,9.60
2023-05-06T18:34:09.270Z,9.60
2023-05-06T18:36:37.419Z,9.60
2023-05-06T18:39:08.892Z,9.50
2023-05-06T18:41:37.236Z,9.50
2023-05-06T18:44:05.965Z,9.50
2023-05-06T18:46:34.894Z,9.50
2023-05-06T18:49:03.070Z,9.50
2023-05-06T18:51:32.105Z,9.50
2023-05-06T18:54:00.210Z,9.50
2023-05-06T18:56:30.862Z,9.50
2023-05-06T18:58:58.990Z,9.50
2023-05-06T19:01:27.291Z,9.50
2023-05-06T19:03:56.612Z,9.50
2023-05-06T19:06:25.044Z,9.40
2023-05-06T19:08:53.627Z,9.40
2023-05-06T19:11:21.765Z,9.40
2023-05-06T19:13:52.086Z,9.40
2023-05-06T19:16:20.244Z,9.40
2023-05-06T19:18:48.783Z,9.40
2023-05-06T19:21:18.594Z,9.40
2023-05-06T19:23:49.265Z,9.30
2023-05-06T19:26:21.103Z,9.30
2023-05-06T19:28:50.937Z,9.30
2023-05-06T19:31:19.269Z,9.30
2023-05-06T19:33:47.521Z,9.20
2023-05-06T19:36:19.130Z,9.20
2023-05-06T19:38:47.247Z,9.20
2023-05-06T19:41:15.403Z,9.20
2023-05-06T19:43:44.202Z,9.10
2023-05-06T19:46:13.881Z,9.10
2023-05-06T19:48:42.052Z,9.10
2023-05-06T19:51:10.231Z,9.10
2023-05-06T19:53:38.394Z,9.10
2023-05-06T19:56:10.335Z,9.10
2023-05-06T19:58:38.886Z,9.10
2023-05-06T20:01:07.110Z,9.10
2023-05-06T20:03:37.033Z,9.10
2023-05-06T20:06:05.700Z,9.20
2023-05-06T20:08:33.816Z,9.20
2023-05-06T20:11:02.424Z,9.10
2023-05-06T20:13:30.636Z,9.20
2023-05-06T20:15:59.149Z,9.20
2023-05-06T20:18:27.306Z,9.20
2023-05-06T20:20:56.820Z,9.20
2023-05-06T20:23:24.995Z,9.20
2023-05-06T20:25:55.746Z,9.10
2023-05-06T20:28:23.914Z,9.20
2023-05-06T20:30:52.283Z,9.20
2023-05-06T20:33:20.564Z,9.10
2023-05-06T20:35:48.791Z,9.20
2023-05-06T20:38:19.737Z,9.20
2023-05-06T20:40:49.579Z,9.20
2023-05-06T20:43:19.558Z,9.10
2023-05-06T20:45:47.778Z,9.20
2023-05-06T20:48:16.732Z,9.10
2023-05-06T20:50:45.811Z,9.10
2023-05-06T20:53:13.960Z,9.10
2023-05-06T20:55:46.429Z,9.10
2023-05-06T20:58:14.654Z,9.10
2023-05-06T21:00:42.802Z,9.10
2023-05-06T21:03:11.160Z,9.10
2023-05-06T21:05:39.960Z,9.10
2023-05-06T21:08:08.804Z,9.10
2023-05-06T21:10:42.016Z,9.10
2023-05-06T21:13:11.601Z,9.10
2023-05-06T21:15:40.979Z,9.10
2023-05-06T21:18:10.090Z,9.10
2023-05-06T21:20:38.448Z,9.10
2023-05-06T21:23:09.278Z,9.00
2023-05-06T21:25:37.890Z,9.00
2023-05-06T21:28:06.967Z,9.00
2023-05-06T21:30:38.072Z,9.00
2023-05-06T21:33:08.335Z,9.10
2023-05-06T21:35:38.745Z,9.00
2023-05-06T21:38:06.934Z,9.00
2023-05-06T21:40:35.065Z,9.00
2023-05-06T21:43:04.957Z,9.00
2023-05-06T21:45:33.138Z,9.00
2023-05-06T21:48:05.422Z,9.00
2023-05-06T21:50:33.617Z,9.00
2023-05-06T21:53:01.842Z,9.00
2023-05-06T21:55:30.965Z,8.90
2023-05-06T21:57:59.080Z,8.90
2023-05-06T22:00:28.972Z,9.00
2023-05-06T22:02:57.244Z,9.00
2023-05-06T22:05:26.953Z,8.90
2023-05-06T22:07:55.040Z,8.90
2023-05-06T22:10:24.948Z,8.90
2023-05-06T22:12:54.043Z,8.80
2023-05-06T22:15:22.171Z,8.80
2023-05-06T22:17:51.038Z,8.80
2023-05-06T22:20:22.693Z,8.80
2023-05-06T22:22:54.970Z,8.80
2023-05-06T22:25:23.361Z,8.80
2023-05-06T22:27:51.964Z,8.70
2023-05-06T22:30:23.171Z,8.70
2023-05-06T22:32:51.880Z,8.70
2023-05-06T22:35:20.211Z,8.70
2023-05-06T22:37:49.275Z,8.70
2023-05-06T22:40:19.977Z,8.70
2023-05-06T22:42:51.137Z,8.70
2023-05-06T22:45:19.771Z,8.70
2023-05-06T22:47:48.821Z,8.70
2023-05-06T22:50:18.007Z,8.60
2023-05-06T22:52:46.113Z,8.60
2023-05-06T22:55:15.982Z,8.60
2023-05-06T22:57:50.018Z,8.60
2023-05-06T23:00:20.010Z,8.60
2023-05-06T23:02:48.467Z,8.60
2023-05-06T23:05:16.613Z,8.60
2023-05-06T23:07:48.070Z,8.50
2023-05-06T23:10:16.268Z,8.50
2023-05-06T23:12:45.088Z,8.50
2023-05-06T23:15:14.595Z,8.50
2023-05-06T23:17:42.807Z,8.50
2023-05-06T23:20:16.456Z,8.50
2023-05-06T23:22:47.828Z,8.50
2023-05-06T23:25:17.266Z,8.50
2023-05-06T23:27:45.431Z,8.50
2023-05-06T23:30:15.875Z,8.50
2023-05-06T23:32:44.033Z,8.50
2023-05-06T23:35:15.949Z,8.50
2023-05-06T23:37:44.084Z,8.50
2023-05-06T23:40:15.032Z,8.50
2023-05-06T23:42:43.169Z,8.50
2023-05-06T23:45:11.647Z,8.50
2023-05-06T23:47:45.132Z,8.50
2023-05-06T23:50:13.937Z,8.40
2023-05-06T23:52:43.002Z,8.50
2023-05-06T23:55:12.376Z,8.40
2023-05-06T23:57:40.750Z,8.40
